KMLI/MLI METAR and TAF weather

Enter ICAO airport designator
Station Type Date Time Source
KMLI METAR 2019/12/08 10:52 UTC NOAA

KMLI 081052Z AUTO 20009KT 9SM CLR 03/M01 A2991 RMK AO2 SLP134 T00281011 $


Station Type Date Time Source
KMLI Decoded METAR 2019/12/08 10:52 UTC NOAA

MOLINE QUAD-CITY AIRPORT, IL, United States (KMLI) 41-27N 90-31W 184M
Dec 08, 2019 - 05:52 AM EST / 2019.12.08 1052 UTC
Wind: from the SSW (200 degrees) at 10 MPH (9 KT):0
Visibility: 9 mile(s):0
Sky conditions: clear
Temperature: 37.0 F (2.8 C)
Dew Point: 30.0 F (-1.1 C)
Relative Humidity: 75%
Pressure (altimeter): 29.91 in. Hg (1012 hPa)
ob: KMLI 081052Z AUTO 20009KT 9SM CLR 03/M01 A2991 RMK AO2 SLP134 T00281011
cycle: 11

Station Type Date Time Source
KMLI TAF 2019/12/08 06:22 UTC NOAA

TAF KMLI 080520Z 0806/0906 18015KT P6SM BKN250 WS015/22040KT
FM081400 21013KT P6SM OVC200
FM081800 22009KT P6SM SCT030 BKN060
FM090200 16006KT P6SM OVC025

Example: see airport list